Time;durP1;ratioP1;P1;durP2;ratioP2;P2;SDS_P1;SDS_P2;PMS_P1;PMS_P2;Temp;Humidity;BMP_temperature;BMP_pressure;BME280_temperature;BME280_humidity;BME280_pressure;Samples;Min_cycle;Max_cycle;Signal;HPM_P1;HPM_P2
2022/09/30 00:00:44;;;;;;;;;;;;;;;17.84;47.06;100306.53;5016627;28;921;-47
2022/09/30 00:03:09;;;;;;;;;;;;;;;17.28;47.44;100308.78;5016613;28;1470;-46
2022/09/30 00:05:34;;;;;;;;;;;;;;;17.15;46.64;100308.63;5017246;28;1139;-49
2022/09/30 00:08:00;;;;;;;;;;;;;;;17.13;46.64;100316.34;5016682;28;1080;-47
2022/09/30 00:10:25;;;;;;;;;;;;;;;17.77;47.55;100311.56;5016572;28;1084;-48
2022/09/30 00:12:51;;;;;;;;;;;;;;;17.35;47.44;100319.44;5016247;28;2256;-50
2022/09/30 00:15:17;;;;;;;;;;;;;;;17.22;46.74;100320.09;5016878;28;1119;-49
2022/09/30 00:17:42;;;;;;;;;;;;;;;17.13;46.51;100327.34;5016867;28;1902;-48
2022/09/30 00:20:08;;;;;;;;;;;;;;;17.05;46.12;100332.31;5016559;28;1123;-46
2022/09/30 00:22:34;;;;;;;;;;;;;;;17.05;45.55;100326.00;5016431;28;1092;-49
2022/09/30 00:24:59;;;;;;;;;;;;;;;17.08;45.56;100326.28;5015985;28;1218;-46
2022/09/30 00:27:25;;;;;;;;;;;;;;;17.70;46.69;100324.84;5016337;28;1104;-49
2022/09/30 00:29:50;;;;;;;;;;;;;;;17.55;47.79;100334.06;5016462;28;1218;-45
2022/09/30 00:32:16;;;;;;;;;;;;;;;17.21;47.42;100334.97;5016175;28;1160;-45
2022/09/30 00:34:41;;;;;;;;;;;;;;;17.15;46.63;100330.59;5015926;28;1100;-46
2022/09/30 00:37:07;;;;;;;;;;;;;;;18.17;47.18;100338.88;5015709;28;990;-45
2022/09/30 00:39:36;;;;;;;;;;;;;;;17.44;47.97;100339.66;5016006;28;1909;-47
2022/09/30 00:42:05;;;;;;;;;;;;;;;17.30;47.36;100333.22;5016166;28;2403;-49
2022/09/30 00:44:49;;;;;;;;;;;;;;;17.15;46.73;100336.91;5016407;28;1152;-49
2022/09/30 00:47:18;;;;;;;;;;;;;;;17.05;46.45;100343.31;5015865;28;1125;-48
2022/09/30 00:49:43;;;;;;;;;;;;;;;17.07;45.60;100343.03;4998310;28;1247;-50
2022/09/30 00:52:08;;;;;;;;;;;;;;;17.88;47.21;100343.34;4998983;28;1089;-46
2022/09/30 00:54:34;;;;;;;;;;;;;;;17.31;47.83;100343.09;5016346;28;1089;-49
2022/09/30 00:57:02;;;;;;;;;;;;;;;17.17;46.95;100345.69;5015665;28;1186;-49
2022/09/30 00:59:35;;;;;;;;;;;;;;;17.13;46.43;100343.81;4998399;28;1979;-49
2022/09/30 01:02:00;;;;;;;;;;;;;;;17.07;45.90;100345.78;4998270;28;1120;-47
2022/09/30 01:04:26;;;;;;;;;;;;;;;16.99;45.81;100340.91;4998462;28;1124;-51
2022/09/30 01:06:52;;;;;;;;;;;;;;;16.97;45.27;100345.84;4998581;28;1187;-46
2022/09/30 01:09:17;;;;;;;;;;;;;;;18.31;46.87;100342.53;5016269;28;1171;-49
2022/09/30 01:11:43;;;;;;;;;;;;;;;17.48;47.88;100344.59;5015541;28;1120;-49
2022/09/30 01:14:11;;;;;;;;;;;;;;;17.21;47.20;100356.94;5015662;28;2490;-50
2022/09/30 01:16:39;;;;;;;;;;;;;;;17.15;46.68;100347.91;5015826;28;1065;-48
2022/09/30 01:19:20;;;;;;;;;;;;;;;17.90;47.31;100335.59;4998211;28;1977;-48
2022/09/30 01:21:46;;;;;;;;;;;;;;;17.43;47.25;100340.78;5016057;28;1093;-50
2022/09/30 01:24:15;;;;;;;;;;;;;;;17.17;46.89;100334.72;5015390;28;1160;-50
2022/09/30 01:26:53;;;;;;;;;;;;;;;17.53;47.37;100341.78;4997920;28;1128;-48
2022/09/30 01:29:25;;;;;;;;;;;;;;;17.42;47.86;100346.59;5015295;28;1145;-46
2022/09/30 01:32:07;;;;;;;;;;;;;;;17.27;47.07;100329.09;5015892;28;1140;-48
2022/09/30 01:34:44;;;;;;;;;;;;;;;17.20;46.43;100344.31;5015539;28;1081;-49
2022/09/30 01:37:17;;;;;;;;;;;;;;;17.04;46.24;100354.59;4997873;28;895;-49
2022/09/30 01:40:02;;;;;;;;;;;;;;;17.02;45.63;100343.88;5016028;28;1962;-47
2022/09/30 01:42:36;;;;;;;;;;;;;;;16.99;45.39;100349.16;4998064;28;2338;-48
2022/09/30 01:45:10;;;;;;;;;;;;;;;17.87;46.58;100346.38;5015687;28;1203;-46
2022/09/30 01:47:45;;;;;;;;;;;;;;;17.24;47.13;100350.88;5001555;28;1182;-49
2022/09/30 01:50:24;;;;;;;;;;;;;;;17.10;46.53;100353.44;5019287;28;1092;-49
2022/09/30 01:52:49;;;;;;;;;;;;;;;17.86;47.22;100355.75;5002330;28;1105;-46
2022/09/30 01:55:14;;;;;;;;;;;;;;;17.30;47.52;100365.38;5001633;28;1383;-50
2022/09/30 01:57:57;;;;;;;;;;;;;;;17.22;46.70;100370.38;5019605;28;1910;-49
2022/09/30 02:00:23;;;;;;;;;;;;;;;17.83;47.45;100367.34;5001517;28;1144;-50
2022/09/30 02:02:59;;;;;;;;;;;;;;;17.37;47.47;100363.91;5001880;28;1143;-48
2022/09/30 02:05:26;;;;;;;;;;;;;;;17.20;46.98;100366.28;5002047;28;1164;-50
2022/09/30 02:07:55;;;;;;;;;;;;;;;17.22;46.15;100372.31;5001455;28;1100;-46
2022/09/30 02:10:22;;;;;;;;;;;;;;;17.08;46.03;100372.13;5001265;28;1152;-48
2022/09/30 02:13:13;;;;;;;;;;;;;;;17.07;45.64;100376.81;5002636;28;1838;-48
2022/09/30 02:15:39;;;;;;;;;;;;;;;17.30;45.82;100382.69;5001912;28;1199;-49
2022/09/30 02:18:11;;;;;;;;;;;;;;;17.72;47.35;100378.44;5001542;28;1971;-46
2022/09/30 02:20:37;;;;;;;;;;;;;;;17.35;47.20;100390.03;5001471;28;1088;-48
2022/09/30 02:23:05;;;;;;;;;;;;;;;18.32;47.84;100391.00;5005938;28;1160;-47
2022/09/30 02:25:38;;;;;;;;;;;;;;;17.65;48.01;100399.13;5000996;28;822;-50
2022/09/30 02:28:06;;;;;;;;;;;;;;;17.34;47.35;100402.97;5003092;28;1470;-48
2022/09/30 02:30:35;;;;;;;;;;;;;;;17.26;46.68;100398.09;5017118;28;1268;-47
2022/09/30 02:33:02;;;;;;;;;;;;;;;17.48;47.17;100402.31;5017222;28;1156;-49
2022/09/30 02:35:34;;;;;;;;;;;;;;;17.70;47.88;100407.34;5017581;28;1156;-45
2022/09/30 02:38:09;;;;;;;;;;;;;;;17.33;47.43;100415.06;5017768;28;1965;-48
2022/09/30 02:40:41;;;;;;;;;;;;;;;17.20;46.96;100410.25;5017361;28;1139;-48
2022/09/30 02:43:06;;;;;;;;;;;;;;;17.23;46.10;100409.66;5018477;28;2459;-48
2022/09/30 02:45:34;;;;;;;;;;;;;;;17.05;46.04;100408.41;5018811;28;1131;-47
2022/09/30 02:48:19;;;;;;;;;;;;;;;17.92;47.16;100406.84;5017207;28;1131;-48
2022/09/30 02:50:48;;;;;;;;;;;;;;;17.38;47.07;100406.78;5017293;28;1100;-48
2022/09/30 02:53:22;;;;;;;;;;;;;;;17.22;46.91;100406.09;5017517;28;1113;-46
2022/09/30 02:56:14;;;;;;;;;;;;;;;17.32;46.65;100402.47;5018419;28;1174;-49
2022/09/30 02:58:39;;;;;;;;;;;;;;;17.48;47.56;100407.81;5002607;28;1983;-46
2022/09/30 03:01:08;;;;;;;;;;;;;;;17.27;47.19;100411.53;5017569;28;1168;-48
2022/09/30 03:03:36;;;;;;;;;;;;;;;17.15;46.39;100404.78;5017039;28;1179;-49
2022/09/30 03:06:01;;;;;;;;;;;;;;;17.13;45.89;100401.50;5018084;28;1119;-48
2022/09/30 03:08:27;;;;;;;;;;;;;;;17.11;45.59;100412.78;5016535;28;1100;-48
2022/09/30 03:10:52;;;;;;;;;;;;;;;17.06;45.31;100415.56;5018212;28;1103;-49
2022/09/30 03:13:18;;;;;;;;;;;;;;;17.49;46.34;100424.03;5017710;28;2548;-49
2022/09/30 03:16:02;;;;;;;;;;;;;;;17.49;46.69;100417.69;5017617;28;1167;-43
2022/09/30 03:18:30;;;;;;;;;;;;;;;17.17;46.35;100410.81;5018080;28;1979;-46
2022/09/30 03:21:06;;;;;;;;;;;;;;;17.06;46.14;100412.81;5017533;28;1127;-50
2022/09/30 03:23:50;;;;;;;;;;;;;;;17.50;46.52;100413.84;5017793;28;1222;-50
2022/09/30 03:26:34;;;;;;;;;;;;;;;17.39;47.23;100418.59;5017369;28;883;-51
2022/09/30 03:29:04;;;;;;;;;;;;;;;17.17;46.69;100419.06;5017551;28;1151;-46
2022/09/30 03:31:41;;;;;;;;;;;;;;;17.04;46.53;100429.59;5017388;28;1116;-47
2022/09/30 03:34:09;;;;;;;;;;;;;;;17.04;45.78;100424.09;5017200;28;1127;-45
2022/09/30 03:36:43;;;;;;;;;;;;;;;16.87;45.63;100420.88;5017144;28;1144;-47
2022/09/30 03:39:23;;;;;;;;;;;;;;;17.76;46.79;100431.72;4999614;28;1969;-48
2022/09/30 03:41:53;;;;;;;;;;;;;;;17.13;47.26;100431.72;4999628;28;1183;-51
2022/09/30 03:44:21;;;;;;;;;;;;;;;17.05;46.58;100431.22;4999885;28;2625;-49
2022/09/30 03:46:50;;;;;;;;;;;;;;;17.89;47.20;100437.66;4999985;28;1147;-49
2022/09/30 03:49:18;;;;;;;;;;;;;;;17.52;47.93;100445.44;4999687;28;1222;-49
2022/09/30 03:51:44;;;;;;;;;;;;;;;17.39;47.64;100446.91;4999005;28;1100;-52
2022/09/30 03:54:10;;;;;;;;;;;;;;;17.18;47.42;100446.25;4999219;28;1132;-50
2022/09/30 03:56:36;;;;;;;;;;;;;;;17.40;47.63;100445.81;4999478;28;1085;-51
2022/09/30 03:59:02;;;;;;;;;;;;;;;17.70;48.29;100438.41;5016811;28;1906;-52
2022/09/30 04:01:28;;;;;;;;;;;;;;;17.36;47.58;100447.50;5016178;28;1179;-51
2022/09/30 04:03:53;;;;;;;;;;;;;;;17.29;47.02;100444.22;5016397;28;1270;-47
2022/09/30 04:06:19;;;;;;;;;;;;;;;16.99;46.69;100446.09;5016578;28;1212;-50
2022/09/30 04:08:45;;;;;;;;;;;;;;;17.09;45.98;100440.53;5015997;28;1168;-48
2022/09/30 04:11:10;;;;;;;;;;;;;;;17.68;47.04;100451.59;5016440;28;1294;-51
2022/09/30 04:13:36;;;;;;;;;;;;;;;17.62;47.84;100455.53;5015920;28;1187;-51
2022/09/30 04:16:01;;;;;;;;;;;;;;;17.31;47.54;100450.28;5016402;28;1259;-45
2022/09/30 04:18:27;;;;;;;;;;;;;;;17.15;47.18;100451.50;5016261;28;1897;-49
2022/09/30 04:20:52;;;;;;;;;;;;;;;17.10;46.23;100450.41;5016379;28;1254;-51
2022/09/30 04:23:18;;;;;;;;;;;;;;;17.05;45.94;100455.94;5016257;28;1263;-49
2022/09/30 04:25:50;;;;;;;;;;;;;;;16.95;45.70;100456.00;4998964;28;1048;-48
2022/09/30 04:28:15;;;;;;;;;;;;;;;18.30;47.06;100459.28;5015618;28;1208;-49
2022/09/30 04:30:41;;;;;;;;;;;;;;;17.55;47.88;100466.03;5015845;28;1208;-50
2022/09/30 04:33:06;;;;;;;;;;;;;;;17.26;47.58;100469.53;5015647;28;1239;-50
2022/09/30 04:35:32;;;;;;;;;;;;;;;17.19;46.94;100472.59;5016532;28;1128;-49
2022/09/30 04:37:57;;;;;;;;;;;;;;;17.97;47.40;100475.59;5015775;28;1982;-49
2022/09/30 04:40:22;;;;;;;;;;;;;;;17.44;47.76;100471.59;5016468;28;1113;-49
2022/09/30 04:42:48;;;;;;;;;;;;;;;17.15;47.64;100479.78;5016098;28;1933;-51
2022/09/30 04:45:13;;;;;;;;;;;;;;;17.22;46.55;100490.44;5016736;28;1140;-46
2022/09/30 04:47:43;;;;;;;;;;;;;;;17.36;46.83;100498.88;5016283;28;1195;-49
2022/09/30 04:50:08;;;;;;;;;;;;;;;17.53;47.79;100501.22;5016015;28;1183;-49
2022/09/30 04:52:34;;;;;;;;;;;;;;;17.26;47.26;100513.50;5016308;28;1192;-49
2022/09/30 04:54:59;;;;;;;;;;;;;;;17.17;46.67;100507.00;5012453;28;1142;-50
2022/09/30 04:57:26;;;;;;;;;;;;;;;17.12;46.43;100507.00;5013529;28;1167;-50
2022/09/30 04:59:52;;;;;;;;;;;;;;;17.97;47.23;100514.09;5015574;28;1910;-49
2022/09/30 05:02:17;;;;;;;;;;;;;;;17.35;47.73;100513.72;5014916;28;877;-50
2022/09/30 05:04:43;;;;;;;;;;;;;;;17.16;47.17;100508.09;5014570;28;1386;-50
2022/09/30 05:07:08;;;;;;;;;;;;;;;17.19;46.39;100513.00;5015324;28;1121;-47
2022/09/30 05:09:34;;;;;;;;;;;;;;;17.10;46.00;100505.34;5015542;28;1088;-49
2022/09/30 05:12:02;;;;;;;;;;;;;;;17.02;45.93;100513.38;5014651;28;1760;-49
2022/09/30 05:14:28;;;;;;;;;;;;;;;17.99;46.71;100505.56;5012934;28;1075;-50
2022/09/30 05:16:53;;;;;;;;;;;;;;;17.34;47.21;100512.09;5014790;28;1224;-49
2022/09/30 05:19:19;;;;;;;;;;;;;;;17.13;46.95;100503.97;5011902;28;1902;-50
2022/09/30 05:21:45;;;;;;;;;;;;;;;17.03;46.62;100502.09;5019572;28;1128;-50
2022/09/30 05:24:10;;;;;;;;;;;;;;;17.26;46.89;100508.00;5018835;28;1143;-49
2022/09/30 05:26:36;;;;;;;;;;;;;;;17.67;47.90;100499.47;5000965;28;918;-48
2022/09/30 05:29:02;;;;;;;;;;;;;;;17.29;47.68;100501.94;5008216;28;1227;-51
2022/09/30 05:31:27;;;;;;;;;;;;;;;17.20;47.04;100509.97;5018792;28;1297;-50
2022/09/30 05:33:54;;;;;;;;;;;;;;;17.15;46.38;100517.44;5016410;28;1176;-49
2022/09/30 05:36:19;;;;;;;;;;;;;;;17.94;47.13;100520.19;5017293;28;1120;-49
2022/09/30 05:38:44;;;;;;;;;;;;;;;17.90;47.17;100510.84;5018330;28;1906;-47
2022/09/30 05:41:11;;;;;;;;;;;;;;;18.34;46.68;100514.56;5019272;28;1155;-49
2022/09/30 05:43:39;;;;;;;;;;;;;;;17.77;48.35;100513.13;5018686;28;2210;-51
2022/09/30 05:46:04;;;;;;;;;;;;;;;17.56;49.09;100511.66;5017036;28;1191;-49
2022/09/30 05:48:30;;;;;;;;;;;;;;;17.43;49.63;100513.13;5018637;28;1230;-48
2022/09/30 05:50:56;;;;;;;;;;;;;;;17.30;50.20;100511.84;5018960;28;892;-50
2022/09/30 05:53:22;;;;;;;;;;;;;;;17.24;50.63;100521.22;5017943;28;1191;-44
2022/09/30 05:55:49;;;;;;;;;;;;;;;17.12;51.12;100535.28;5018383;28;1193;-48
2022/09/30 05:58:14;;;;;;;;;;;;;;;17.03;51.58;100531.50;5018796;28;1985;-48
2022/09/30 06:00:40;;;;;;;;;;;;;;;16.98;51.81;100535.09;5017465;28;1128;-49
2022/09/30 06:03:06;;;;;;;;;;;;;;;16.89;52.02;100532.13;5018568;28;872;-47
2022/09/30 06:05:31;;;;;;;;;;;;;;;16.82;52.46;100537.06;5018004;28;1072;-48
2022/09/30 06:07:56;;;;;;;;;;;;;;;16.79;52.42;100536.78;5009817;28;1172;-49
2022/09/30 06:10:23;;;;;;;;;;;;;;;16.70;52.79;100540.09;5012751;28;1271;-48
2022/09/30 06:12:48;;;;;;;;;;;;;;;16.68;52.91;100536.84;5010233;28;1782;-48
2022/09/30 06:15:13;;;;;;;;;;;;;;;16.65;53.16;100536.56;5006606;28;1294;-48
2022/09/30 06:17:41;;;;;;;;;;;;;;;16.60;53.48;100548.38;5008900;28;1989;-50
2022/09/30 06:20:07;;;;;;;;;;;;;;;16.55;53.40;100548.41;5012020;28;1262;-49
2022/09/30 06:22:34;;;;;;;;;;;;;;;16.53;53.64;100550.63;5018475;28;1171;-48
2022/09/30 06:25:01;;;;;;;;;;;;;;;16.47;53.85;100562.72;5019038;28;1084;-50
2022/09/30 06:27:27;;;;;;;;;;;;;;;16.40;54.17;100557.50;5018470;28;1155;-48
2022/09/30 06:29:52;;;;;;;;;;;;;;;16.37;54.13;100550.66;5018413;28;1121;-50
2022/09/30 06:32:18;;;;;;;;;;;;;;;16.33;54.27;100560.53;5017947;28;1278;-49
2022/09/30 06:34:43;;;;;;;;;;;;;;;16.33;54.29;100571.50;5018460;28;1129;-47
2022/09/30 06:37:12;;;;;;;;;;;;;;;16.26;54.57;100579.22;5018267;28;1188;-48
2022/09/30 06:39:39;;;;;;;;;;;;;;;16.26;54.65;100579.22;5018177;28;1975;-47
2022/09/30 06:42:04;;;;;;;;;;;;;;;16.19;54.54;100587.72;5018293;28;2012;-50
2022/09/30 06:44:33;;;;;;;;;;;;;;;16.19;54.59;100589.66;5018659;28;1148;-47
2022/09/30 06:46:59;;;;;;;;;;;;;;;16.19;54.86;100595.13;5017954;28;1282;-50
2022/09/30 06:49:25;;;;;;;;;;;;;;;16.12;54.71;100602.78;5018002;28;1266;-49
2022/09/30 06:51:51;;;;;;;;;;;;;;;16.14;54.80;100611.59;5017776;28;982;-46
2022/09/30 06:54:19;;;;;;;;;;;;;;;16.12;54.83;100602.78;5017771;28;1100;-50
2022/09/30 06:56:45;;;;;;;;;;;;;;;16.06;55.28;100608.28;5017903;28;1156;-49
2022/09/30 06:59:10;;;;;;;;;;;;;;;16.82;54.09;100602.97;5017915;28;1967;-47
2022/09/30 07:01:36;;;;;;;;;;;;;;;17.01;53.69;100614.22;5017330;28;1152;-49
2022/09/30 07:04:06;;;;;;;;;;;;;;;16.60;54.71;100622.50;5016728;28;958;-51
2022/09/30 07:06:32;;;;;;;;;;;;;;;16.45;55.32;100625.28;5017623;28;1270;-50
2022/09/30 07:08:57;;;;;;;;;;;;;;;16.36;55.27;100631.31;5016886;28;1108;-48
2022/09/30 07:11:23;;;;;;;;;;;;;;;16.31;55.24;100628.56;5017516;28;1061;-48
2022/09/30 07:13:49;;;;;;;;;;;;;;;16.32;55.58;100622.00;5017407;28;2052;-51
2022/09/30 07:16:17;;;;;;;;;;;;;;;16.31;55.59;100631.31;5017913;28;1062;-50
2022/09/30 07:18:44;;;;;;;;;;;;;;;16.32;56.00;100632.97;5017095;28;1901;-49
2022/09/30 07:21:12;;;;;;;;;;;;;;;16.24;56.51;100631.63;5017890;28;1179;-50
2022/09/30 07:23:37;;;;;;;;;;;;;;;16.17;56.29;100624.75;5018058;28;1160;-52
2022/09/30 07:26:04;;;;;;;;;;;;;;;16.27;56.58;100621.19;5017414;28;1069;-52
2022/09/30 07:28:32;;;;;;;;;;;;;;;16.14;57.61;100619.81;5005130;28;1128;-51
2022/09/30 07:30:59;;;;;;;;;;;;;;;16.12;58.35;100614.59;5017547;28;1135;-49
2022/09/30 07:33:25;;;;;;;;;;;;;;;16.13;58.00;100615.41;5017581;28;1186;-52
2022/09/30 07:35:51;;;;;;;;;;;;;;;16.13;57.54;100613.50;5017720;28;1084;-55
2022/09/30 07:38:17;;;;;;;;;;;;;;;16.10;57.40;100616.78;5016900;28;1906;-53
2022/09/30 07:41:03;;;;;;;;;;;;;;;16.12;57.40;100617.34;5017147;28;1182;-53
2022/09/30 07:43:37;;;;;;;;;;;;;;;16.07;57.05;100618.19;5016627;28;2503;-51
2022/09/30 07:46:12;;;;;;;;;;;;;;;16.05;57.21;100606.63;5017628;28;1262;-51
2022/09/30 07:48:50;;;;;;;;;;;;;;;16.37;56.90;100616.50;5017458;28;1076;-51
2022/09/30 07:51:23;;;;;;;;;;;;;;;17.55;55.25;100609.00;5016848;28;1136;-49
2022/09/30 07:53:49;;;;;;;;;;;;;;;16.81;57.40;100609.56;5017193;28;1123;-52
2022/09/30 07:56:15;;;;;;;;;;;;;;;16.60;57.27;100598.63;5016968;28;1159;-49
2022/09/30 07:58:41;;;;;;;;;;;;;;;16.51;57.40;100607.69;5017044;28;1906;-50
2022/09/30 08:01:06;;;;;;;;;;;;;;;16.41;57.23;100609.38;5016870;28;1116;-52
2022/09/30 08:03:33;;;;;;;;;;;;;;;16.37;57.07;100610.22;5016727;28;1624;-52
2022/09/30 08:06:08;;;;;;;;;;;;;;;16.30;56.84;100626.94;5016270;28;1096;-52
2022/09/30 08:08:34;;;;;;;;;;;;;;;16.31;57.11;100625.00;5017029;28;1100;-48
2022/09/30 08:10:59;;;;;;;;;;;;;;;16.25;56.78;100622.25;5017056;28;1131;-52
2022/09/30 08:13:25;;;;;;;;;;;;;;;16.22;56.95;100620.06;5016649;28;2183;-52
2022/09/30 08:15:50;;;;;;;;;;;;;;;16.18;56.75;100618.16;5016067;28;1284;-53
2022/09/30 08:18:16;;;;;;;;;;;;;;;16.13;57.03;100619.00;5016340;28;1969;-49
2022/09/30 08:20:41;;;;;;;;;;;;;;;16.19;56.92;100622.56;5016852;28;1151;-54
2022/09/30 08:23:07;;;;;;;;;;;;;;;17.60;55.56;100617.22;5016387;28;1287;-54
2022/09/30 08:25:32;;;;;;;;;;;;;;;17.02;56.52;100629.56;5016304;28;1072;-50
2022/09/30 08:27:57;;;;;;;;;;;;;;;16.74;57.06;100625.50;5015781;28;1295;-53
2022/09/30 08:30:23;;;;;;;;;;;;;;;16.62;57.16;100631.31;5016166;28;1188;-53
2022/09/30 08:32:48;;;;;;;;;;;;;;;16.56;57.24;100615.94;5016262;28;1208;-52
2022/09/30 08:35:14;;;;;;;;;;;;;;;16.52;57.05;100626.66;5015913;28;1235;-49
2022/09/30 08:37:39;;;;;;;;;;;;;;;16.43;57.36;100634.59;5015871;28;1902;-51
2022/09/30 08:40:05;;;;;;;;;;;;;;;16.41;57.18;100625.84;5016225;28;1081;-52
2022/09/30 08:42:37;;;;;;;;;;;;;;;16.41;57.04;100625.00;5015869;28;1914;-47
2022/09/30 08:45:06;;;;;;;;;;;;;;;16.35;56.93;100637.91;4998798;28;1124;-51
2022/09/30 08:47:50;;;;;;;;;;;;;;;16.33;56.96;100644.78;4999029;28;1366;-51
2022/09/30 08:50:22;;;;;;;;;;;;;;;16.30;56.96;100643.41;5015803;28;1163;-48
2022/09/30 08:52:51;;;;;;;;;;;;;;;16.24;56.83;100647.22;4998161;28;969;-44
2022/09/30 08:55:20;;;;;;;;;;;;;;;16.29;56.93;100649.19;5015428;28;1231;-51
2022/09/30 08:57:45;;;;;;;;;;;;;;;16.22;56.69;100649.44;5015634;28;1991;-50
2022/09/30 09:00:11;;;;;;;;;;;;;;;16.21;56.82;100654.09;5016360;28;1159;-50
2022/09/30 09:02:44;;;;;;;;;;;;;;;16.20;57.02;100641.50;4997333;28;981;-50
2022/09/30 09:05:11;;;;;;;;;;;;;;;16.15;57.07;100654.38;5005940;28;1171;-49
2022/09/30 09:07:36;;;;;;;;;;;;;;;16.16;56.68;100656.00;4998308;28;1123;-51
2022/09/30 09:10:01;;;;;;;;;;;;;;;16.12;56.86;100655.75;5016036;28;1096;-50
2022/09/30 09:12:36;;;;;;;;;;;;;;;16.13;56.77;100668.38;5016022;28;2334;-50
2022/09/30 09:15:10;;;;;;;;;;;;;;;16.12;56.72;100672.22;5015479;28;1092;-48
2022/09/30 09:17:38;;;;;;;;;;;;;;;16.81;56.62;100667.22;4998812;28;1068;-47
2022/09/30 09:20:13;;;;;;;;;;;;;;;17.27;56.29;100663.56;4998677;28;1171;-50
2022/09/30 09:22:39;;;;;;;;;;;;;;;16.73;57.36;100660.38;5015977;28;1096;-47
2022/09/30 09:25:05;;;;;;;;;;;;;;;16.59;57.53;100668.38;5015816;28;1108;-51
2022/09/30 09:27:49;;;;;;;;;;;;;;;16.49;57.53;100660.13;4997767;28;1297;-50
2022/09/30 09:30:16;;;;;;;;;;;;;;;16.46;57.17;100668.09;5016313;28;1164;-50
2022/09/30 09:32:41;;;;;;;;;;;;;;;16.41;57.11;100675.25;4998513;28;1116;-50
2022/09/30 09:35:14;;;;;;;;;;;;;;;16.37;57.11;100663.16;4998519;28;1096;-50
2022/09/30 09:40:42;;;;;;;;;;;;;;;16.31;56.97;100656.00;5015702;28;889;-51
2022/09/30 09:43:22;;;;;;;;;;;;;;;16.32;57.08;100656.84;5015300;28;1953;-48
2022/09/30 09:46:14;;;;;;;;;;;;;;;16.25;57.22;100654.38;4998376;28;1241;-50
2022/09/30 09:48:39;;;;;;;;;;;;;;;16.23;57.11;100654.66;5010853;28;1240;-51
2022/09/30 09:51:25;;;;;;;;;;;;;;;16.21;57.15;100651.34;5015488;28;1132;-50
2022/09/30 09:53:52;;;;;;;;;;;;;;;17.51;55.84;100662.91;4986454;28;1101;-49
2022/09/30 09:56:21;;;;;;;;;;;;;;;17.13;56.83;100659.78;5015776;28;1117;-51
2022/09/30 09:59:06;;;;;;;;;;;;;;;16.80;57.69;100662.81;5015588;28;1910;-49
2022/09/30 10:01:32;;;;;;;;;;;;;;;16.70;57.46;100652.69;5015421;28;1120;-52
2022/09/30 10:04:08;;;;;;;;;;;;;;;16.58;57.59;100652.19;5014924;28;866;-48
2022/09/30 10:06:43;;;;;;;;;;;;;;;16.56;57.31;100646.13;5016031;28;1262;-48
2022/09/30 10:09:21;;;;;;;;;;;;;;;16.55;57.34;100641.72;5018980;28;1170;-49
2022/09/30 10:11:47;;;;;;;;;;;;;;;16.50;57.48;100652.72;5019280;28;1451;-49
2022/09/30 10:14:15;;;;;;;;;;;;;;;16.45;57.33;100648.03;5018827;28;2140;-49
2022/09/30 10:16:41;;;;;;;;;;;;;;;16.42;57.32;100643.97;5018450;28;997;-50
2022/09/30 10:19:24;;;;;;;;;;;;;;;16.43;57.06;100645.59;5000926;28;1985;-48
2022/09/30 10:21:49;;;;;;;;;;;;;;;16.39;57.10;100649.97;5018835;28;1230;-46
2022/09/30 10:24:18;;;;;;;;;;;;;;;16.41;57.12;100646.94;5000435;28;1279;-51
2022/09/30 10:26:44;;;;;;;;;;;;;;;16.33;57.08;100642.84;5018234;28;1239;-52
2022/09/30 10:29:22;;;;;;;;;;;;;;;16.37;57.12;100640.41;5017922;28;1271;-51
2022/09/30 10:31:49;;;;;;;;;;;;;;;16.31;57.29;100636.00;5000712;28;1137;-45
2022/09/30 10:34:17;;;;;;;;;;;;;;;16.30;57.12;100637.91;5000423;28;1404;-48
2022/09/30 10:36:43;;;;;;;;;;;;;;;16.33;57.09;100639.31;5017945;28;1172;-48
2022/09/30 10:39:14;;;;;;;;;;;;;;;16.35;57.04;100642.56;5018198;28;1923;-50
2022/09/30 10:41:40;;;;;;;;;;;;;;;16.25;57.20;100637.91;5017891;28;1089;-49
2022/09/30 10:44:06;;;;;;;;;;;;;;;16.27;57.05;100634.91;5018118;28;1755;-49
2022/09/30 10:46:34;;;;;;;;;;;;;;;16.24;57.13;100636.25;5018622;28;1212;-45
2022/09/30 10:48:59;;;;;;;;;;;;;;;16.21;57.48;100632.13;5017708;28;1172;-45
2022/09/30 10:51:26;;;;;;;;;;;;;;;16.24;57.02;100628.03;5000745;28;1207;-49
2022/09/30 10:53:51;;;;;;;;;;;;;;;16.19;57.27;100617.88;5000237;28;994;-48
2022/09/30 10:56:30;;;;;;;;;;;;;;;16.21;57.00;100628.59;5000480;28;1408;-51
2022/09/30 10:58:56;;;;;;;;;;;;;;;17.61;56.15;100627.09;5017576;28;1906;-51
2022/09/30 11:01:26;;;;;;;;;;;;;;;17.04;57.50;100630.13;5017499;28;1266;-49
2022/09/30 11:04:00;;;;;;;;;;;;;;;16.75;58.00;100630.72;4999685;28;1228;-48
2022/09/30 11:06:28;;;;;;;;;;;;;;;16.65;57.98;100617.03;4998814;28;1141;-46
2022/09/30 11:08:57;;;;;;;;;;;;;;;16.57;58.08;100632.13;5017538;28;1290;-51
2022/09/30 11:11:28;;;;;;;;;;;;;;;16.53;57.71;100619.22;4999886;28;1251;-51
2022/09/30 11:14:08;;;;;;;;;;;;;;;16.49;57.74;100612.66;5017799;28;1801;-49
2022/09/30 11:16:48;;;;;;;;;;;;;;;16.48;57.41;100620.06;5017009;28;1248;-50
2022/09/30 11:19:16;;;;;;;;;;;;;;;16.43;57.66;100623.63;5017348;28;1945;-48
2022/09/30 11:22:00;;;;;;;;;;;;;;;16.42;57.56;100627.50;5018037;28;1061;-46
2022/09/30 11:24:39;;;;;;;;;;;;;;;16.39;57.49;100621.72;5017734;28;1069;-49
2022/09/30 11:27:04;;;;;;;;;;;;;;;16.42;57.32;100632.97;5017468;28;1267;-50
2022/09/30 11:29:39;;;;;;;;;;;;;;;16.38;57.32;100629.13;5016805;28;1184;-50
2022/09/30 11:32:05;;;;;;;;;;;;;;;16.32;57.60;100629.41;4999793;28;1303;-50
2022/09/30 11:34:39;;;;;;;;;;;;;;;16.32;57.30;100632.16;5016485;28;1208;-47
2022/09/30 11:37:12;;;;;;;;;;;;;;;16.30;57.34;100624.19;5016775;28;1231;-48
2022/09/30 11:39:44;;;;;;;;;;;;;;;16.28;57.50;100631.88;5016869;28;1910;-46
2022/09/30 11:42:15;;;;;;;;;;;;;;;16.33;57.25;100645.59;4999131;28;1910;-48
2022/09/30 11:44:41;;;;;;;;;;;;;;;16.26;57.21;100639.56;5016971;28;1185;-47
2022/09/30 11:47:09;;;;;;;;;;;;;;;16.24;57.26;100641.75;4999264;28;1069;-47
2022/09/30 11:49:34;;;;;;;;;;;;;;;16.19;57.55;100645.31;5017019;28;1239;-48
2022/09/30 11:52:00;;;;;;;;;;;;;;;16.22;57.16;100643.97;5017472;28;1159;-48
2022/09/30 11:54:25;;;;;;;;;;;;;;;16.30;57.46;100648.06;5017239;28;1203;-47
2022/09/30 11:56:54;;;;;;;;;;;;;;;17.69;56.64;100647.69;5016827;28;1145;-46
2022/09/30 11:59:19;;;;;;;;;;;;;;;17.00;58.04;100642.78;4999665;28;1902;-48
2022/09/30 12:01:46;;;;;;;;;;;;;;;16.76;58.15;100646.09;5017164;28;1116;-48
2022/09/30 12:04:20;;;;;;;;;;;;;;;16.64;58.22;100656.53;4999055;28;1120;-45
2022/09/30 12:06:48;;;;;;;;;;;;;;;16.55;58.16;100653.53;5017264;28;1072;-46
2022/09/30 12:09:22;;;;;;;;;;;;;;;16.51;58.03;100646.13;4999564;28;1109;-48
2022/09/30 12:11:49;;;;;;;;;;;;;;;16.50;57.68;100644.50;5017182;28;1124;-46
2022/09/30 12:14:25;;;;;;;;;;;;;;;16.49;57.40;100657.38;4999136;28;2220;-51
2022/09/30 12:16:51;;;;;;;;;;;;;;;16.46;57.62;100654.38;4999149;28;1076;-50
2022/09/30 12:19:22;;;;;;;;;;;;;;;16.38;57.70;100637.38;5016307;28;1993;-46
2022/09/30 12:21:47;;;;;;;;;;;;;;;16.41;57.28;100634.06;5016976;28;1376;-47
2022/09/30 12:24:16;;;;;;;;;;;;;;;16.34;57.72;100632.69;5016510;28;1159;-51
2022/09/30 12:26:41;;;;;;;;;;;;;;;16.30;57.52;100635.19;5016327;28;1211;-48
2022/09/30 12:32:09;;;;;;;;;;;;;;;16.29;57.71;100650.00;5016343;28;1234;-47
2022/09/30 12:34:39;;;;;;;;;;;;;;;16.28;57.40;100651.06;5016088;28;1212;-52
2022/09/30 12:37:23;;;;;;;;;;;;;;;17.45;57.13;100649.16;5014926;28;1401;-49
2022/09/30 12:39:58;;;;;;;;;;;;;;;17.16;57.96;100661.94;5015955;28;1910;-50
2022/09/30 12:42:30;;;;;;;;;;;;;;;16.83;58.33;100653.22;5016152;28;1805;-49
2022/09/30 12:45:15;;;;;;;;;;;;;;;16.71;58.12;100646.09;5016006;28;1243;-51
2022/09/30 12:47:44;;;;;;;;;;;;;;;16.64;58.13;100655.72;5016361;28;1214;-45
2022/09/30 12:50:11;;;;;;;;;;;;;;;16.59;58.12;100659.28;5014137;28;1125;-49
2022/09/30 12:52:37;;;;;;;;;;;;;;;16.57;57.85;100650.53;5016012;28;1192;-48
2022/09/30 12:55:18;;;;;;;;;;;;;;;16.51;57.85;100648.88;5015068;28;1286;-49
2022/09/30 12:57:44;;;;;;;;;;;;;;;16.52;57.49;100653.25;5014985;28;1153;-48
2022/09/30 13:00:13;;;;;;;;;;;;;;;16.47;57.84;100656.84;5014457;28;1906;-48
2022/09/30 13:02:40;;;;;;;;;;;;;;;16.43;57.79;100659.31;5016392;28;1179;-50